sensor_id;sensor_type;location;lat;lon;timestamp;temperature;humidity
8459;DHT22;4266;48.816;9.154;2023-06-22T00:01:33;20.40;98.50
8459;DHT22;4266;48.816;9.154;2023-06-22T00:03:59;20.30;98.70
8459;DHT22;4266;48.816;9.154;2023-06-22T00:06:25;20.40;98.90
8459;DHT22;4266;48.816;9.154;2023-06-22T00:08:51;20.40;99.00
8459;DHT22;4266;48.816;9.154;2023-06-22T00:11:16;20.40;99.00
8459;DHT22;4266;48.816;9.154;2023-06-22T00:13:42;20.40;99.00
8459;DHT22;4266;48.816;9.154;2023-06-22T00:16:08;20.30;99.10
8459;DHT22;4266;48.816;9.154;2023-06-22T00:18:33;20.20;99.10
8459;DHT22;4266;48.816;9.154;2023-06-22T00:20:59;20.30;99.40
8459;DHT22;4266;48.816;9.154;2023-06-22T00:23:25;20.30;99.30
8459;DHT22;4266;48.816;9.154;2023-06-22T00:25:51;20.30;99.40
8459;DHT22;4266;48.816;9.154;2023-06-22T00:28:16;20.30;99.50
8459;DHT22;4266;48.816;9.154;2023-06-22T00:30:43;20.20;99.70
8459;DHT22;4266;48.816;9.154;2023-06-22T00:33:08;20.20;99.70
8459;DHT22;4266;48.816;9.154;2023-06-22T00:35:35;20.20;99.80
8459;DHT22;4266;48.816;9.154;2023-06-22T00:38:01;20.20;99.80
8459;DHT22;4266;48.816;9.154;2023-06-22T00:40:27;20.20;99.90
8459;DHT22;4266;48.816;9.154;2023-06-22T00:42:53;20.10;99.90
8459;DHT22;4266;48.816;9.154;2023-06-22T00:45:18;20.00;99.90
8459;DHT22;4266;48.816;9.154;2023-06-22T00:47:44;20.00;99.90
8459;DHT22;4266;48.816;9.154;2023-06-22T00:50:10;19.90;99.90
8459;DHT22;4266;48.816;9.154;2023-06-22T00:52:36;19.90;99.90
8459;DHT22;4266;48.816;9.154;2023-06-22T00:55:02;19.90;99.90
8459;DHT22;4266;48.816;9.154;2023-06-22T00:57:28;19.90;99.90
8459;DHT22;4266;48.816;9.154;2023-06-22T00:59:54;19.80;99.90
8459;DHT22;4266;48.816;9.154;2023-06-22T01:02:20;19.80;99.90
8459;DHT22;4266;48.816;9.154;2023-06-22T01:04:47;19.70;99.90
8459;DHT22;4266;48.816;9.154;2023-06-22T01:07:22;19.70;99.90
8459;DHT22;4266;48.816;9.154;2023-06-22T01:09:49;19.70;99.90
8459;DHT22;4266;48.816;9.154;2023-06-22T01:12:13;19.80;99.90
8459;DHT22;4266;48.816;9.154;2023-06-22T01:14:42;19.70;99.90
8459;DHT22;4266;48.816;9.154;2023-06-22T01:17:06;19.70;99.90
8459;DHT22;4266;48.816;9.154;2023-06-22T01:19:39;19.70;99.90
8459;DHT22;4266;48.816;9.154;2023-06-22T01:22:03;19.70;99.90
8459;DHT22;4266;48.816;9.154;2023-06-22T01:24:32;19.70;99.90
8459;DHT22;4266;48.816;9.154;2023-06-22T01:27:00;19.70;99.90
8459;DHT22;4266;48.816;9.154;2023-06-22T01:29:23;19.60;99.90
8459;DHT22;4266;48.816;9.154;2023-06-22T01:31:49;19.60;99.90
8459;DHT22;4266;48.816;9.154;2023-06-22T01:34:15;19.60;99.90
8459;DHT22;4266;48.816;9.154;2023-06-22T01:36:42;19.50;99.90
8459;DHT22;4266;48.816;9.154;2023-06-22T01:39:07;19.50;99.90
8459;DHT22;4266;48.816;9.154;2023-06-22T01:41:34;19.60;99.90
8459;DHT22;4266;48.816;9.154;2023-06-22T01:43:59;19.60;99.90
8459;DHT22;4266;48.816;9.154;2023-06-22T01:46:25;19.60;99.90
8459;DHT22;4266;48.816;9.154;2023-06-22T01:48:51;19.50;99.90
8459;DHT22;4266;48.816;9.154;2023-06-22T01:51:17;19.50;99.90
8459;DHT22;4266;48.816;9.154;2023-06-22T01:53:44;19.40;99.90
8459;DHT22;4266;48.816;9.154;2023-06-22T01:56:09;19.40;99.90
8459;DHT22;4266;48.816;9.154;2023-06-22T01:58:36;19.40;99.90
8459;DHT22;4266;48.816;9.154;2023-06-22T02:01:09;19.30;99.90
8459;DHT22;4266;48.816;9.154;2023-06-22T02:03:34;19.40;99.90
8459;DHT22;4266;48.816;9.154;2023-06-22T02:06:03;19.30;99.90
8459;DHT22;4266;48.816;9.154;2023-06-22T02:08:29;19.30;99.90
8459;DHT22;4266;48.816;9.154;2023-06-22T02:10:54;19.10;99.90
8459;DHT22;4266;48.816;9.154;2023-06-22T02:13:19;19.10;99.90
8459;DHT22;4266;48.816;9.154;2023-06-22T02:15:45;19.10;99.90
8459;DHT22;4266;48.816;9.154;2023-06-22T02:18:12;19.10;99.90
8459;DHT22;4266;48.816;9.154;2023-06-22T02:20:37;19.10;99.90
8459;DHT22;4266;48.816;9.154;2023-06-22T02:23:03;18.90;99.90
8459;DHT22;4266;48.816;9.154;2023-06-22T02:25:29;19.00;99.90
8459;DHT22;4266;48.816;9.154;2023-06-22T02:27:55;19.00;99.90
8459;DHT22;4266;48.816;9.154;2023-06-22T02:30:20;19.00;99.90
8459;DHT22;4266;48.816;9.154;2023-06-22T02:32:47;19.00;99.90
8459;DHT22;4266;48.816;9.154;2023-06-22T02:35:13;18.90;99.90
8459;DHT22;4266;48.816;9.154;2023-06-22T02:37:39;18.90;99.90
8459;DHT22;4266;48.816;9.154;2023-06-22T02:40:06;18.90;99.90
8459;DHT22;4266;48.816;9.154;2023-06-22T02:42:32;18.90;99.90
8459;DHT22;4266;48.816;9.154;2023-06-22T02:44:58;18.80;99.90
8459;DHT22;4266;48.816;9.154;2023-06-22T02:47:23;18.90;99.90
8459;DHT22;4266;48.816;9.154;2023-06-22T02:49:49;18.90;99.90
8459;DHT22;4266;48.816;9.154;2023-06-22T02:52:15;18.90;99.90
8459;DHT22;4266;48.816;9.154;2023-06-22T02:54:40;18.80;99.90
8459;DHT22;4266;48.816;9.154;2023-06-22T02:57:06;18.90;99.90
8459;DHT22;4266;48.816;9.154;2023-06-22T03:02:36;18.80;99.90
8459;DHT22;4266;48.816;9.154;2023-06-22T03:05:01;18.80;99.90
8459;DHT22;4266;48.816;9.154;2023-06-22T03:07:28;18.70;99.90
8459;DHT22;4266;48.816;9.154;2023-06-22T03:09:53;18.70;99.90
8459;DHT22;4266;48.816;9.154;2023-06-22T03:12:19;18.70;99.90
8459;DHT22;4266;48.816;9.154;2023-06-22T03:14:45;18.60;99.90
8459;DHT22;4266;48.816;9.154;2023-06-22T03:17:11;18.60;99.90
8459;DHT22;4266;48.816;9.154;2023-06-22T03:19:37;18.50;99.90
8459;DHT22;4266;48.816;9.154;2023-06-22T03:22:03;18.60;99.90
8459;DHT22;4266;48.816;9.154;2023-06-22T03:24:30;18.60;99.90
8459;DHT22;4266;48.816;9.154;2023-06-22T03:26:55;18.60;99.90
8459;DHT22;4266;48.816;9.154;2023-06-22T03:29:21;18.60;99.90
8459;DHT22;4266;48.816;9.154;2023-06-22T03:31:47;18.60;99.90
8459;DHT22;4266;48.816;9.154;2023-06-22T03:34:13;18.70;99.90
8459;DHT22;4266;48.816;9.154;2023-06-22T03:36:39;18.70;99.90
8459;DHT22;4266;48.816;9.154;2023-06-22T03:39:05;18.70;99.90
8459;DHT22;4266;48.816;9.154;2023-06-22T03:41:30;18.60;99.90
8459;DHT22;4266;48.816;9.154;2023-06-22T03:43:57;18.60;99.90
8459;DHT22;4266;48.816;9.154;2023-06-22T03:46:23;18.60;99.90
8459;DHT22;4266;48.816;9.154;2023-06-22T03:48:49;18.60;99.90
8459;DHT22;4266;48.816;9.154;2023-06-22T03:51:15;18.70;99.90
8459;DHT22;4266;48.816;9.154;2023-06-22T03:53:41;18.60;99.90
8459;DHT22;4266;48.816;9.154;2023-06-22T03:56:07;18.70;99.90
8459;DHT22;4266;48.816;9.154;2023-06-22T03:58:33;18.60;99.90
8459;DHT22;4266;48.816;9.154;2023-06-22T04:00:59;18.70;99.90
8459;DHT22;4266;48.816;9.154;2023-06-22T04:03:24;18.80;99.90
8459;DHT22;4266;48.816;9.154;2023-06-22T04:05:50;18.80;99.90
8459;DHT22;4266;48.816;9.154;2023-06-22T04:08:16;18.80;99.90
8459;DHT22;4266;48.816;9.154;2023-06-22T04:10:42;18.90;99.90
8459;DHT22;4266;48.816;9.154;2023-06-22T04:13:08;18.90;99.90
8459;DHT22;4266;48.816;9.154;2023-06-22T04:15:34;19.00;99.90
8459;DHT22;4266;48.816;9.154;2023-06-22T04:18:00;19.20;99.90
8459;DHT22;4266;48.816;9.154;2023-06-22T04:20:26;19.10;99.90
8459;DHT22;4266;48.816;9.154;2023-06-22T04:22:52;19.30;99.90
8459;DHT22;4266;48.816;9.154;2023-06-22T04:25:17;19.30;99.90
8459;DHT22;4266;48.816;9.154;2023-06-22T04:27:43;19.30;99.90
8459;DHT22;4266;48.816;9.154;2023-06-22T04:30:09;19.50;99.90
8459;DHT22;4266;48.816;9.154;2023-06-22T04:32:35;19.50;99.90
8459;DHT22;4266;48.816;9.154;2023-06-22T04:35:12;19.60;99.90
8459;DHT22;4266;48.816;9.154;2023-06-22T04:37:57;19.70;99.90
8459;DHT22;4266;48.816;9.154;2023-06-22T04:40:22;19.90;99.90
8459;DHT22;4266;48.816;9.154;2023-06-22T04:42:48;19.90;99.90
8459;DHT22;4266;48.816;9.154;2023-06-22T04:45:14;20.00;99.90
8459;DHT22;4266;48.816;9.154;2023-06-22T04:50:18;20.10;99.90
8459;DHT22;4266;48.816;9.154;2023-06-22T04:55:35;20.50;99.90
8459;DHT22;4266;48.816;9.154;2023-06-22T04:58:01;20.50;99.90
8459;DHT22;4266;48.816;9.154;2023-06-22T05:00:28;20.80;99.90
8459;DHT22;4266;48.816;9.154;2023-06-22T05:02:53;20.80;99.90
8459;DHT22;4266;48.816;9.154;2023-06-22T05:05:19;21.00;99.90
8459;DHT22;4266;48.816;9.154;2023-06-22T05:07:45;21.10;99.90
8459;DHT22;4266;48.816;9.154;2023-06-22T05:10:11;21.40;99.40
8459;DHT22;4266;48.816;9.154;2023-06-22T05:12:36;21.60;99.10
8459;DHT22;4266;48.816;9.154;2023-06-22T05:15:02;21.70;98.60
8459;DHT22;4266;48.816;9.154;2023-06-22T05:20:20;22.00;98.40
8459;DHT22;4266;48.816;9.154;2023-06-22T05:22:46;22.20;98.30
8459;DHT22;4266;48.816;9.154;2023-06-22T05:25:13;22.50;97.60
8459;DHT22;4266;48.816;9.154;2023-06-22T05:27:38;22.70;97.40
8459;DHT22;4266;48.816;9.154;2023-06-22T05:30:04;22.80;97.40
8459;DHT22;4266;48.816;9.154;2023-06-22T05:32:31;23.20;96.70
8459;DHT22;4266;48.816;9.154;2023-06-22T05:34:57;23.20;96.60
8459;DHT22;4266;48.816;9.154;2023-06-22T05:37:22;23.30;96.40
8459;DHT22;4266;48.816;9.154;2023-06-22T05:39:49;23.20;96.10
8459;DHT22;4266;48.816;9.154;2023-06-22T05:42:14;23.20;96.10
8459;DHT22;4266;48.816;9.154;2023-06-22T05:44:40;23.20;96.10
8459;DHT22;4266;48.816;9.154;2023-06-22T05:47:06;23.50;95.90
8459;DHT22;4266;48.816;9.154;2023-06-22T05:49:32;23.40;95.50
8459;DHT22;4266;48.816;9.154;2023-06-22T05:51:58;23.30;95.80
8459;DHT22;4266;48.816;9.154;2023-06-22T05:54:23;23.60;95.80
8459;DHT22;4266;48.816;9.154;2023-06-22T05:59:27;23.40;95.80
8459;DHT22;4266;48.816;9.154;2023-06-22T06:01:53;23.60;95.80
8459;DHT22;4266;48.816;9.154;2023-06-22T06:04:19;23.70;95.50
8459;DHT22;4266;48.816;9.154;2023-06-22T06:06:44;23.70;95.30
8459;DHT22;4266;48.816;9.154;2023-06-22T06:09:10;23.80;95.40
8459;DHT22;4266;48.816;9.154;2023-06-22T06:11:36;23.60;95.20
8459;DHT22;4266;48.816;9.154;2023-06-22T06:14:02;24.00;95.00
8459;DHT22;4266;48.816;9.154;2023-06-22T06:16:28;23.90;94.90
8459;DHT22;4266;48.816;9.154;2023-06-22T06:18:54;24.40;95.00
8459;DHT22;4266;48.816;9.154;2023-06-22T06:21:20;24.30;94.90
8459;DHT22;4266;48.816;9.154;2023-06-22T06:23:46;25.10;93.80
8459;DHT22;4266;48.816;9.154;2023-06-22T06:26:12;25.10;93.80
8459;DHT22;4266;48.816;9.154;2023-06-22T06:28:38;25.30;93.30
8459;DHT22;4266;48.816;9.154;2023-06-22T06:31:04;25.30;93.30
8459;DHT22;4266;48.816;9.154;2023-06-22T06:33:30;25.70;92.60
8459;DHT22;4266;48.816;9.154;2023-06-22T06:35:56;25.70;92.50
8459;DHT22;4266;48.816;9.154;2023-06-22T06:38:22;26.00;93.00
8459;DHT22;4266;48.816;9.154;2023-06-22T06:40:47;26.10;92.20
8459;DHT22;4266;48.816;9.154;2023-06-22T06:43:13;27.20;91.90
8459;DHT22;4266;48.816;9.154;2023-06-22T06:45:39;27.70;91.10
8459;DHT22;4266;48.816;9.154;2023-06-22T06:48:05;28.60;90.10
8459;DHT22;4266;48.816;9.154;2023-06-22T06:50:31;28.50;90.10
8459;DHT22;4266;48.816;9.154;2023-06-22T06:52:57;29.20;88.50
8459;DHT22;4266;48.816;9.154;2023-06-22T06:55:22;29.60;87.70
8459;DHT22;4266;48.816;9.154;2023-06-22T06:57:48;29.70;86.70
8459;DHT22;4266;48.816;9.154;2023-06-22T07:00:14;29.20;85.80
8459;DHT22;4266;48.816;9.154;2023-06-22T07:02:42;30.00;86.10
8459;DHT22;4266;48.816;9.154;2023-06-22T07:05:07;30.10;86.10
8459;DHT22;4266;48.816;9.154;2023-06-22T07:07:33;29.10;84.30
8459;DHT22;4266;48.816;9.154;2023-06-22T07:09:59;29.00;84.10
8459;DHT22;4266;48.816;9.154;2023-06-22T07:12:25;29.00;85.30
8459;DHT22;4266;48.816;9.154;2023-06-22T07:14:51;29.30;84.70
8459;DHT22;4266;48.816;9.154;2023-06-22T07:17:17;28.80;84.50
8459;DHT22;4266;48.816;9.154;2023-06-22T07:19:42;28.80;84.60
8459;DHT22;4266;48.816;9.154;2023-06-22T07:22:08;29.10;85.00
8459;DHT22;4266;48.816;9.154;2023-06-22T07:24:35;29.30;83.50
8459;DHT22;4266;48.816;9.154;2023-06-22T07:27:00;29.30;83.50
8459;DHT22;4266;48.816;9.154;2023-06-22T07:29:26;29.10;84.00
8459;DHT22;4266;48.816;9.154;2023-06-22T07:31:51;29.00;84.50
8459;DHT22;4266;48.816;9.154;2023-06-22T07:34:17;28.90;83.60
8459;DHT22;4266;48.816;9.154;2023-06-22T07:36:43;28.90;83.90
8459;DHT22;4266;48.816;9.154;2023-06-22T07:39:08;28.90;84.20
8459;DHT22;4266;48.816;9.154;2023-06-22T07:41:34;28.70;84.00
8459;DHT22;4266;48.816;9.154;2023-06-22T07:44:02;29.00;85.10
8459;DHT22;4266;48.816;9.154;2023-06-22T07:46:26;29.00;85.00
8459;DHT22;4266;48.816;9.154;2023-06-22T07:48:52;29.00;82.80
8459;DHT22;4266;48.816;9.154;2023-06-22T07:51:18;29.00;82.90
8459;DHT22;4266;48.816;9.154;2023-06-22T07:53:44;29.00;82.90
8459;DHT22;4266;48.816;9.154;2023-06-22T07:56:10;29.10;85.00
8459;DHT22;4266;48.816;9.154;2023-06-22T07:58:35;29.20;82.80
8459;DHT22;4266;48.816;9.154;2023-06-22T08:01:01;29.70;81.50
8459;DHT22;4266;48.816;9.154;2023-06-22T08:03:27;29.70;81.50
8459;DHT22;4266;48.816;9.154;2023-06-22T08:05:53;30.00;80.80
8459;DHT22;4266;48.816;9.154;2023-06-22T08:08:18;30.20;80.90
8459;DHT22;4266;48.816;9.154;2023-06-22T08:10:44;30.40;80.20
8459;DHT22;4266;48.816;9.154;2023-06-22T08:13:10;30.20;79.80
8459;DHT22;4266;48.816;9.154;2023-06-22T08:15:35;30.80;81.70
8459;DHT22;4266;48.816;9.154;2023-06-22T08:18:01;30.80;80.30
8459;DHT22;4266;48.816;9.154;2023-06-22T08:20:27;30.70;79.00
8459;DHT22;4266;48.816;9.154;2023-06-22T08:22:53;30.80;78.50
8459;DHT22;4266;48.816;9.154;2023-06-22T08:25:18;30.80;78.00
8459;DHT22;4266;48.816;9.154;2023-06-22T08:27:45;30.50;78.30
8459;DHT22;4266;48.816;9.154;2023-06-22T08:30:10;30.40;78.20
8459;DHT22;4266;48.816;9.154;2023-06-22T08:32:36;30.60;80.00
8459;DHT22;4266;48.816;9.154;2023-06-22T08:35:02;30.40;78.80
8459;DHT22;4266;48.816;9.154;2023-06-22T08:37:28;29.90;79.30
8459;DHT22;4266;48.816;9.154;2023-06-22T08:39:58;29.80;80.10
8459;DHT22;4266;48.816;9.154;2023-06-22T08:42:24;29.80;80.10
8459;DHT22;4266;48.816;9.154;2023-06-22T08:44:50;29.40;80.40
8459;DHT22;4266;48.816;9.154;2023-06-22T08:47:15;29.30;80.30
8459;DHT22;4266;48.816;9.154;2023-06-22T08:49:41;29.70;81.00
8459;DHT22;4266;48.816;9.154;2023-06-22T08:52:07;29.70;78.00
8459;DHT22;4266;48.816;9.154;2023-06-22T08:54:33;30.20;77.30
8459;DHT22;4266;48.816;9.154;2023-06-22T08:56:58;30.80;77.00
8459;DHT22;4266;48.816;9.154;2023-06-22T08:59:25;30.80;77.70
8459;DHT22;4266;48.816;9.154;2023-06-22T09:01:50;30.80;77.80
8459;DHT22;4266;48.816;9.154;2023-06-22T09:04:16;30.70;77.20
8459;DHT22;4266;48.816;9.154;2023-06-22T09:06:42;31.20;78.20
8459;DHT22;4266;48.816;9.154;2023-06-22T09:09:12;31.20;78.20
8459;DHT22;4266;48.816;9.154;2023-06-22T09:11:36;31.60;76.00
8459;DHT22;4266;48.816;9.154;2023-06-22T09:14:02;31.60;76.00
8459;DHT22;4266;48.816;9.154;2023-06-22T09:16:29;30.70;75.00
8459;DHT22;4266;48.816;9.154;2023-06-22T09:18:54;30.70;74.90
8459;DHT22;4266;48.816;9.154;2023-06-22T09:21:20;30.60;76.80
8459;DHT22;4266;48.816;9.154;2023-06-22T09:23:46;31.20;75.10
8459;DHT22;4266;48.816;9.154;2023-06-22T09:26:12;31.20;75.20
8459;DHT22;4266;48.816;9.154;2023-06-22T09:28:37;31.20;75.20
8459;DHT22;4266;48.816;9.154;2023-06-22T09:31:03;30.70;74.90
8459;DHT22;4266;48.816;9.154;2023-06-22T09:33:29;31.40;75.80
8459;DHT22;4266;48.816;9.154;2023-06-22T09:35:55;32.10;72.60
8459;DHT22;4266;48.816;9.154;2023-06-22T09:38:21;32.00;72.50
8459;DHT22;4266;48.816;9.154;2023-06-22T09:40:46;32.30;72.00
8459;DHT22;4266;48.816;9.154;2023-06-22T09:43:12;32.60;73.50
8459;DHT22;4266;48.816;9.154;2023-06-22T09:45:38;32.70;72.40
8459;DHT22;4266;48.816;9.154;2023-06-22T09:48:04;32.70;72.50
8459;DHT22;4266;48.816;9.154;2023-06-22T09:50:30;32.60;71.50
8459;DHT22;4266;48.816;9.154;2023-06-22T09:52:56;32.90;70.70
8459;DHT22;4266;48.816;9.154;2023-06-22T09:55:22;32.50;69.30
8459;DHT22;4266;48.816;9.154;2023-06-22T09:57:48;32.50;69.30
8459;DHT22;4266;48.816;9.154;2023-06-22T10:00:15;32.00;69.20
8459;DHT22;4266;48.816;9.154;2023-06-22T10:02:41;32.00;70.20
8459;DHT22;4266;48.816;9.154;2023-06-22T10:05:06;32.20;70.20
8459;DHT22;4266;48.816;9.154;2023-06-22T10:07:32;32.20;69.70
8459;DHT22;4266;48.816;9.154;2023-06-22T10:09:58;32.40;69.10
8459;DHT22;4266;48.816;9.154;2023-06-22T10:12:23;31.30;69.60
8459;DHT22;4266;48.816;9.154;2023-06-22T10:14:50;31.00;69.30
8459;DHT22;4266;48.816;9.154;2023-06-22T10:17:15;31.00;69.30
8459;DHT22;4266;48.816;9.154;2023-06-22T10:19:42;30.90;69.40
8459;DHT22;4266;48.816;9.154;2023-06-22T10:22:07;30.90;69.40
8459;DHT22;4266;48.816;9.154;2023-06-22T10:24:33;31.10;70.70
8459;DHT22;4266;48.816;9.154;2023-06-22T10:26:59;31.30;71.40
8459;DHT22;4266;48.816;9.154;2023-06-22T10:29:24;31.40;71.20
8459;DHT22;4266;48.816;9.154;2023-06-22T10:31:50;31.40;71.00
8459;DHT22;4266;48.816;9.154;2023-06-22T10:34:16;32.00;71.00
8459;DHT22;4266;48.816;9.154;2023-06-22T10:36:42;32.00;70.90
8459;DHT22;4266;48.816;9.154;2023-06-22T10:39:08;31.90;69.20
8459;DHT22;4266;48.816;9.154;2023-06-22T10:41:34;32.10;69.30
8459;DHT22;4266;48.816;9.154;2023-06-22T10:43:59;32.10;69.80
8459;DHT22;4266;48.816;9.154;2023-06-22T10:46:26;32.20;69.80
8459;DHT22;4266;48.816;9.154;2023-06-22T10:48:52;32.20;69.80
8459;DHT22;4266;48.816;9.154;2023-06-22T10:51:17;32.40;70.20
8459;DHT22;4266;48.816;9.154;2023-06-22T10:53:44;32.20;71.50
8459;DHT22;4266;48.816;9.154;2023-06-22T10:56:09;32.20;71.50
8459;DHT22;4266;48.816;9.154;2023-06-22T10:58:36;32.10;68.50
8459;DHT22;4266;48.816;9.154;2023-06-22T11:01:01;32.00;68.40
8459;DHT22;4266;48.816;9.154;2023-06-22T11:03:27;31.80;69.80
8459;DHT22;4266;48.816;9.154;2023-06-22T11:05:53;31.90;70.20
8459;DHT22;4266;48.816;9.154;2023-06-22T11:08:18;31.80;70.00
8459;DHT22;4266;48.816;9.154;2023-06-22T11:10:45;31.80;70.60
8459;DHT22;4266;48.816;9.154;2023-06-22T11:13:10;31.70;70.50
8459;DHT22;4266;48.816;9.154;2023-06-22T11:15:36;31.60;69.70
8459;DHT22;4266;48.816;9.154;2023-06-22T11:18:02;31.70;71.00
8459;DHT22;4266;48.816;9.154;2023-06-22T11:20:28;31.60;70.00
8459;DHT22;4266;48.816;9.154;2023-06-22T11:22:54;31.50;70.10
8459;DHT22;4266;48.816;9.154;2023-06-22T11:25:19;31.50;70.60
8459;DHT22;4266;48.816;9.154;2023-06-22T11:27:45;31.40;70.90
8459;DHT22;4266;48.816;9.154;2023-06-22T11:30:11;31.30;70.60
8459;DHT22;4266;48.816;9.154;2023-06-22T11:32:37;31.40;71.30
8459;DHT22;4266;48.816;9.154;2023-06-22T11:35:03;31.40;71.30
8459;DHT22;4266;48.816;9.154;2023-06-22T11:37:29;31.40;72.30
8459;DHT22;4266;48.816;9.154;2023-06-22T11:39:55;31.50;70.60
8459;DHT22;4266;48.816;9.154;2023-06-22T11:42:21;31.40;70.50
8459;DHT22;4266;48.816;9.154;2023-06-22T11:44:47;31.50;69.50
8459;DHT22;4266;48.816;9.154;2023-06-22T11:47:12;31.40;69.60
8459;DHT22;4266;48.816;9.154;2023-06-22T11:49:39;31.30;68.60
8459;DHT22;4266;48.816;9.154;2023-06-22T11:52:05;31.30;68.60
8459;DHT22;4266;48.816;9.154;2023-06-22T11:54:32;31.60;69.00
8459;DHT22;4266;48.816;9.154;2023-06-22T11:56:57;31.50;68.80
8459;DHT22;4266;48.816;9.154;2023-06-22T11:59:23;31.50;68.90
8459;DHT22;4266;48.816;9.154;2023-06-22T12:01:48;31.40;70.70
8459;DHT22;4266;48.816;9.154;2023-06-22T12:04:15;31.20;69.00
8459;DHT22;4266;48.816;9.154;2023-06-22T12:06:40;31.20;69.50
8459;DHT22;4266;48.816;9.154;2023-06-22T12:09:07;31.20;68.50
8459;DHT22;4266;48.816;9.154;2023-06-22T12:11:33;31.20;68.40
8459;DHT22;4266;48.816;9.154;2023-06-22T12:13:58;31.00;68.70
8459;DHT22;4266;48.816;9.154;2023-06-22T12:16:24;31.20;69.10
8459;DHT22;4266;48.816;9.154;2023-06-22T12:18:50;31.20;68.20
8459;DHT22;4266;48.816;9.154;2023-06-22T12:21:15;31.00;68.30
8459;DHT22;4266;48.816;9.154;2023-06-22T12:23:41;31.10;68.20
8459;DHT22;4266;48.816;9.154;2023-06-22T12:26:07;31.20;68.50
8459;DHT22;4266;48.816;9.154;2023-06-22T12:28:32;31.20;68.50
8459;DHT22;4266;48.816;9.154;2023-06-22T12:30:58;31.30;70.70
8459;DHT22;4266;48.816;9.154;2023-06-22T12:33:23;31.40;71.30
8459;DHT22;4266;48.816;9.154;2023-06-22T12:35:49;31.40;69.40
8459;DHT22;4266;48.816;9.154;2023-06-22T12:38:15;31.40;69.80
8459;DHT22;4266;48.816;9.154;2023-06-22T12:40:41;31.40;69.80
8459;DHT22;4266;48.816;9.154;2023-06-22T12:43:06;31.30;70.10
8459;DHT22;4266;48.816;9.154;2023-06-22T12:45:32;31.40;68.90
8459;DHT22;4266;48.816;9.154;2023-06-22T12:47:58;31.40;69.30
8459;DHT22;4266;48.816;9.154;2023-06-22T12:50:23;31.60;69.30
8459;DHT22;4266;48.816;9.154;2023-06-22T12:52:50;32.00;68.80
8459;DHT22;4266;48.816;9.154;2023-06-22T12:55:15;32.00;68.80
8459;DHT22;4266;48.816;9.154;2023-06-22T12:57:42;32.10;68.60
8459;DHT22;4266;48.816;9.154;2023-06-22T13:00:08;32.00;68.60
8459;DHT22;4266;48.816;9.154;2023-06-22T13:02:34;32.00;69.10
8459;DHT22;4266;48.816;9.154;2023-06-22T13:05:01;31.90;69.60
8459;DHT22;4266;48.816;9.154;2023-06-22T13:07:26;31.80;69.90
8459;DHT22;4266;48.816;9.154;2023-06-22T13:09:51;31.70;70.40
8459;DHT22;4266;48.816;9.154;2023-06-22T13:12:17;31.40;70.60
8459;DHT22;4266;48.816;9.154;2023-06-22T13:14:43;31.50;70.70
8459;DHT22;4266;48.816;9.154;2023-06-22T13:17:08;31.40;70.60
8459;DHT22;4266;48.816;9.154;2023-06-22T13:19:34;31.30;70.70
8459;DHT22;4266;48.816;9.154;2023-06-22T13:22:00;31.50;70.40
8459;DHT22;4266;48.816;9.154;2023-06-22T13:24:25;31.70;70.30
8459;DHT22;4266;48.816;9.154;2023-06-22T13:26:51;31.80;70.40
8459;DHT22;4266;48.816;9.154;2023-06-22T13:29:17;32.10;71.30
8459;DHT22;4266;48.816;9.154;2023-06-22T13:31:42;32.40;71.70
8459;DHT22;4266;48.816;9.154;2023-06-22T13:34:08;32.70;70.30
8459;DHT22;4266;48.816;9.154;2023-06-22T13:36:34;32.40;70.30
8459;DHT22;4266;48.816;9.154;2023-06-22T13:38:59;32.20;70.50
8459;DHT22;4266;48.816;9.154;2023-06-22T13:41:25;32.40;70.90
8459;DHT22;4266;48.816;9.154;2023-06-22T13:43:51;32.40;70.20
8459;DHT22;4266;48.816;9.154;2023-06-22T13:46:17;32.20;70.60
8459;DHT22;4266;48.816;9.154;2023-06-22T13:48:44;32.30;71.10
8459;DHT22;4266;48.816;9.154;2023-06-22T13:51:10;32.40;70.30
8459;DHT22;4266;48.816;9.154;2023-06-22T13:53:35;32.60;70.80
8459;DHT22;4266;48.816;9.154;2023-06-22T13:56:01;32.40;70.90
8459;DHT22;4266;48.816;9.154;2023-06-22T13:58:28;32.40;70.90
8459;DHT22;4266;48.816;9.154;2023-06-22T14:00:53;32.40;70.90
8459;DHT22;4266;48.816;9.154;2023-06-22T14:03:19;32.50;71.30
8459;DHT22;4266;48.816;9.154;2023-06-22T14:05:45;32.70;71.10
8459;DHT22;4266;48.816;9.154;2023-06-22T14:08:11;33.00;68.70
8459;DHT22;4266;48.816;9.154;2023-06-22T14:10:37;33.00;68.80
8459;DHT22;4266;48.816;9.154;2023-06-22T14:13:02;32.90;68.60
8459;DHT22;4266;48.816;9.154;2023-06-22T14:15:28;33.10;69.50
8459;DHT22;4266;48.816;9.154;2023-06-22T14:17:54;33.30;69.60
8459;DHT22;4266;48.816;9.154;2023-06-22T14:20:20;33.60;67.10
8459;DHT22;4266;48.816;9.154;2023-06-22T14:22:45;33.60;66.90
8459;DHT22;4266;48.816;9.154;2023-06-22T14:25:12;34.10;68.00
8459;DHT22;4266;48.816;9.154;2023-06-22T14:27:37;34.10;68.10
8459;DHT22;4266;48.816;9.154;2023-06-22T14:30:04;34.20;66.70
8459;DHT22;4266;48.816;9.154;2023-06-22T14:32:30;34.00;67.00
8459;DHT22;4266;48.816;9.154;2023-06-22T14:34:55;34.10;66.40
8459;DHT22;4266;48.816;9.154;2023-06-22T14:37:21;33.90;65.10
8459;DHT22;4266;48.816;9.154;2023-06-22T14:39:47;33.90;64.60
8459;DHT22;4266;48.816;9.154;2023-06-22T14:42:12;33.50;65.00
8459;DHT22;4266;48.816;9.154;2023-06-22T14:44:38;33.70;65.20
8459;DHT22;4266;48.816;9.154;2023-06-22T14:47:04;33.50;65.90
8459;DHT22;4266;48.816;9.154;2023-06-22T14:49:30;33.90;65.10
8459;DHT22;4266;48.816;9.154;2023-06-22T14:51:55;33.70;64.30
8459;DHT22;4266;48.816;9.154;2023-06-22T14:54:21;33.90;65.00
8459;DHT22;4266;48.816;9.154;2023-06-22T14:56:48;33.80;61.50
8459;DHT22;4266;48.816;9.154;2023-06-22T14:59:13;33.80;61.50
8459;DHT22;4266;48.816;9.154;2023-06-22T15:01:39;34.30;62.20
8459;DHT22;4266;48.816;9.154;2023-06-22T15:04:06;34.10;57.50
8459;DHT22;4266;48.816;9.154;2023-06-22T15:06:31;34.00;54.90
8459;DHT22;4266;48.816;9.154;2023-06-22T15:08:57;33.70;53.40
8459;DHT22;4266;48.816;9.154;2023-06-22T15:11:23;33.60;53.00
8459;DHT22;4266;48.816;9.154;2023-06-22T15:13:48;33.70;53.30
8459;DHT22;4266;48.816;9.154;2023-06-22T15:16:15;33.90;53.90
8459;DHT22;4266;48.816;9.154;2023-06-22T15:18:41;33.80;52.10
8459;DHT22;4266;48.816;9.154;2023-06-22T15:21:06;33.80;52.50
8459;DHT22;4266;48.816;9.154;2023-06-22T15:23:32;33.90;52.50
8459;DHT22;4266;48.816;9.154;2023-06-22T15:25:58;33.90;52.00
8459;DHT22;4266;48.816;9.154;2023-06-22T15:28:24;33.90;52.20
8459;DHT22;4266;48.816;9.154;2023-06-22T15:30:49;33.60;51.10
8459;DHT22;4266;48.816;9.154;2023-06-22T15:33:15;33.50;51.50
8459;DHT22;4266;48.816;9.154;2023-06-22T15:35:41;33.60;51.70
8459;DHT22;4266;48.816;9.154;2023-06-22T15:38:07;33.60;51.70
8459;DHT22;4266;48.816;9.154;2023-06-22T15:40:33;33.50;50.80
8459;DHT22;4266;48.816;9.154;2023-06-22T15:42:58;33.60;51.10
8459;DHT22;4266;48.816;9.154;2023-06-22T15:45:24;33.50;51.00
8459;DHT22;4266;48.816;9.154;2023-06-22T15:47:50;33.50;50.90
8459;DHT22;4266;48.816;9.154;2023-06-22T15:50:15;33.40;51.00
8459;DHT22;4266;48.816;9.154;2023-06-22T15:52:42;33.50;51.40
8459;DHT22;4266;48.816;9.154;2023-06-22T15:55:08;33.50;51.40
8459;DHT22;4266;48.816;9.154;2023-06-22T15:57:34;33.30;51.20
8459;DHT22;4266;48.816;9.154;2023-06-22T16:00:00;32.90;51.20
8459;DHT22;4266;48.816;9.154;2023-06-22T16:02:26;32.70;51.80
8459;DHT22;4266;48.816;9.154;2023-06-22T16:04:52;32.60;51.70
8459;DHT22;4266;48.816;9.154;2023-06-22T16:07:18;32.60;51.60